Hickory Flat, Mississippi
Current Conditions -  °F | °C
As of 10:35 PM on Friday 31 Oct 2014 (Local Time) from KUOX Reporting Station
Clear Clear  
Wind Chill: 32°   Ceiling: Unl
Heat Index: 37°   Visibility: 10mi
Dew Point: 25°   Wind: 7mph
Humidity: 60%   Direction: 330°NNW
Pressure: 30.32"   Gusts: NA
Location:  34.62°N, 89.19°W
Report Text: KUOX 010335Z AUTO 33006KT 10SM CLR 03/M04 A3032 RMK AO2 PWINO PNO
Loading
Personal Weather Stations






























Interactive Weather Map
Tropical Storm Tracking
New forecast layout! Learn more

10-Day Weather Forecast

Advertisements
Track Severe Weather on mobile